Time;durP1;ratioP1;P1;durP2;ratioP2;P2;SDS_P1;SDS_P2;PMS_P1;PMS_P2;Temp;Humidity;BMP_temperature;BMP_pressure;BME280_temperature;BME280_humidity;BME280_pressure;Samples;Min_cycle;Max_cycle;Signal;HPM_P1;HPM_P2
2024/01/26 00:00:05;;;;;;;25.07;11.30;;;9.00;99.90;;;;;;5060306;28;20032;-69
2024/01/26 00:02:31;;;;;;;26.33;11.10;;;9.00;99.90;;;;;;5057883;28;20119;-70
2024/01/26 00:04:59;;;;;;;28.43;12.07;;;9.00;99.90;;;;;;5054570;28;20492;-69
2024/01/26 00:07:28;;;;;;;28.77;11.52;;;9.10;99.90;;;;;;5038026;28;20489;-69
2024/01/26 00:09:54;;;;;;;24.05;11.00;;;9.10;99.90;;;;;;5041031;28;20055;-69
2024/01/26 00:12:19;;;;;;;26.33;10.30;;;9.20;99.90;;;;;;5059046;28;20517;-69
2024/01/26 00:14:45;;;;;;;25.33;11.13;;;9.20;99.90;;;;;;5059259;28;20099;-69
2024/01/26 00:17:13;;;;;;;25.33;11.73;;;9.20;99.90;;;;;;5059937;28;20044;-70
2024/01/26 00:19:39;;;;;;;21.42;10.68;;;9.20;99.90;;;;;;5052973;28;20071;-69
2024/01/26 00:22:08;;;;;;;24.17;10.75;;;9.20;99.90;;;;;;5058150;28;20040;-69
2024/01/26 00:24:33;;;;;;;23.85;11.07;;;9.20;99.90;;;;;;5063472;28;20143;-69
2024/01/26 00:26:59;;;;;;;24.47;10.53;;;9.20;99.90;;;;;;5055313;28;20055;-69
2024/01/26 00:29:24;;;;;;;24.17;10.03;;;9.30;99.90;;;;;;5060414;28;20047;-69
2024/01/26 00:31:50;;;;;;;22.73;9.80;;;9.30;99.90;;;;;;5041993;28;20513;-69
2024/01/26 00:34:16;;;;;;;20.50;9.60;;;9.20;99.90;;;;;;5062220;28;20029;-69
2024/01/26 00:36:44;;;;;;;19.40;7.77;;;9.30;99.90;;;;;;5054779;28;20033;-69
2024/01/26 00:39:09;;;;;;;17.08;8.02;;;9.30;99.90;;;;;;5057907;28;20051;-69
2024/01/26 00:41:35;;;;;;;21.10;8.20;;;9.30;99.90;;;;;;5064015;28;20045;-69
2024/01/26 00:44:04;;;;;;;19.00;7.97;;;9.30;99.90;;;;;;5055492;28;20074;-69
2024/01/26 00:46:29;;;;;;;16.92;7.95;;;9.30;99.90;;;;;;5059155;28;20137;-69
2024/01/26 00:48:55;;;;;;;21.17;8.07;;;9.30;99.90;;;;;;5059345;28;20442;-69
2024/01/26 00:51:21;;;;;;;19.43;7.50;;;9.30;99.90;;;;;;5057728;28;22246;-69
2024/01/26 00:53:47;;;;;;;16.23;7.82;;;9.30;99.90;;;;;;5058104;28;20087;-69
2024/01/26 00:56:13;;;;;;;16.40;7.13;;;9.30;99.90;;;;;;5035589;28;20515;-69
2024/01/26 00:58:39;;;;;;;16.45;7.38;;;9.30;99.90;;;;;;5060710;28;20036;-69
2024/01/26 01:01:04;;;;;;;18.50;7.80;;;9.30;99.90;;;;;;5040399;28;20302;-70
2024/01/26 01:03:30;;;;;;;21.27;7.60;;;9.30;99.90;;;;;;5060042;28;20044;-69
2024/01/26 01:05:56;;;;;;;13.90;6.67;;;9.30;99.90;;;;;;5053903;28;20040;-68
2024/01/26 01:08:21;;;;;;;16.33;7.30;;;9.30;99.90;;;;;;5058663;28;20045;-68
2024/01/26 01:10:47;;;;;;;18.17;8.37;;;9.30;99.90;;;;;;5064446;28;20508;-69
2024/01/26 01:13:14;;;;;;;16.98;8.20;;;9.30;99.90;;;;;;5060184;28;20045;-69
2024/01/26 01:15:40;;;;;;;16.83;7.78;;;9.30;99.90;;;;;;5052390;28;20124;-69
2024/01/26 01:18:06;;;;;;;14.32;7.30;;;9.30;99.90;;;;;;5055265;28;20080;-69
2024/01/26 01:20:34;;;;;;;18.37;7.30;;;9.30;99.90;;;;;;5059578;28;20040;-69
2024/01/26 01:23:00;;;;;;;17.77;8.55;;;9.30;99.90;;;;;;5055624;28;20128;-69
2024/01/26 01:25:28;;;;;;;20.37;8.70;;;9.30;99.90;;;;;;5063596;28;20123;-69
2024/01/26 01:27:54;;;;;;;16.70;7.50;;;9.30;99.90;;;;;;5053450;28;20033;-69
2024/01/26 01:30:20;;;;;;;15.63;7.77;;;9.30;99.90;;;;;;5060027;28;20524;-69
2024/01/26 01:32:46;;;;;;;16.48;7.90;;;9.30;99.90;;;;;;5060564;28;20121;-69
2024/01/26 01:35:11;;;;;;;15.50;7.43;;;9.30;99.90;;;;;;5058412;28;20037;-69
2024/01/26 01:37:37;;;;;;;17.10;8.63;;;9.30;99.90;;;;;;5056898;28;20047;-69
2024/01/26 01:40:03;;;;;;;16.47;8.47;;;9.30;99.90;;;;;;5058850;28;20086;-69
2024/01/26 01:42:29;;;;;;;17.55;8.82;;;9.30;99.90;;;;;;5065446;28;20309;-69
2024/01/26 01:44:55;;;;;;;15.87;8.20;;;9.40;99.90;;;;;;5053266;28;20260;-69
2024/01/26 01:47:20;;;;;;;17.67;8.80;;;9.30;99.90;;;;;;5048611;28;20074;-69
2024/01/26 01:49:46;;;;;;;16.52;8.57;;;9.30;99.90;;;;;;5061895;28;20044;-69
2024/01/26 01:52:20;;;;;;;22.65;9.77;;;9.30;99.90;;;;;;5055778;28;20469;-69
2024/01/26 01:54:49;;;;;;;17.23;8.45;;;9.40;99.90;;;;;;5065981;28;20045;-69
2024/01/26 01:57:21;;;;;;;22.30;8.82;;;9.40;99.90;;;;;;5044209;28;20068;-69
2024/01/26 01:59:47;;;;;;;20.55;9.88;;;9.30;99.90;;;;;;5058587;28;20064;-69
2024/01/26 02:02:12;;;;;;;19.00;10.33;;;9.40;99.90;;;;;;5063080;28;20090;-69
2024/01/26 02:04:44;;;;;;;20.77;9.93;;;9.40;99.90;;;;;;5059392;28;20487;-69
2024/01/26 02:07:09;;;;;;;18.03;9.60;;;9.40;99.90;;;;;;5058692;28;20318;-70
2024/01/26 02:09:35;;;;;;;22.00;10.93;;;9.40;99.90;;;;;;5059688;28;20094;-69
2024/01/26 02:12:01;;;;;;;18.67;9.90;;;9.40;99.90;;;;;;5063350;28;20044;-69
2024/01/26 02:14:27;;;;;;;18.77;9.87;;;9.40;99.90;;;;;;5059421;28;20039;-69
2024/01/26 02:16:53;;;;;;;19.75;10.13;;;9.40;99.90;;;;;;5056199;28;20825;-69
2024/01/26 02:19:20;;;;;;;21.70;11.23;;;9.40;99.90;;;;;;5051407;28;20456;-69
2024/01/26 02:21:46;;;;;;;21.48;10.85;;;9.40;99.90;;;;;;5062374;28;20516;-69
2024/01/26 02:24:13;;;;;;;19.83;10.67;;;9.40;99.90;;;;;;5063203;28;20037;-69
2024/01/26 02:26:39;;;;;;;20.73;10.93;;;9.40;99.90;;;;;;5058030;28;20045;-70
2024/01/26 02:29:07;;;;;;;19.63;10.52;;;9.40;99.90;;;;;;5057029;28;20405;-69
2024/01/26 02:31:33;;;;;;;20.25;11.32;;;9.40;99.90;;;;;;5062986;28;20070;-69
2024/01/26 02:33:58;;;;;;;19.85;10.68;;;9.40;99.90;;;;;;5052717;28;20045;-69
2024/01/26 02:36:29;;;;;;;19.92;11.05;;;9.50;99.90;;;;;;5062109;28;20037;-69
2024/01/26 02:38:55;;;;;;;19.10;11.15;;;9.50;99.90;;;;;;5059637;28;21516;-69
2024/01/26 02:41:21;;;;;;;19.30;10.43;;;9.50;99.90;;;;;;5047868;28;20139;-69
2024/01/26 02:43:46;;;;;;;21.52;11.05;;;9.50;99.90;;;;;;5062655;28;20040;-69
2024/01/26 02:46:12;;;;;;;20.60;9.83;;;9.50;99.90;;;;;;5061777;28;20067;-70
2024/01/26 02:48:38;;;;;;;18.70;10.50;;;9.50;99.90;;;;;;5061859;28;20040;-69
2024/01/26 02:51:04;;;;;;;;;;;9.50;99.90;;;;;;5058209;28;20076;-69
2024/01/26 02:53:33;;;;;;;18.45;9.45;;;9.60;99.90;;;;;;5062458;28;19928;-69
2024/01/26 02:55:58;;;;;;;19.85;9.35;;;9.50;99.90;;;;;;5056362;28;20052;-69
2024/01/26 02:58:25;;;;;;;20.77;10.47;;;9.50;99.90;;;;;;5064288;28;20493;-69
2024/01/26 03:00:52;;;;;;;19.08;9.50;;;9.60;99.90;;;;;;5060656;28;20418;-69
2024/01/26 03:03:18;;;;;;;20.52;9.43;;;9.60;99.90;;;;;;5043948;28;20044;-70
2024/01/26 03:05:44;;;;;;;19.80;8.97;;;9.60;99.90;;;;;;5057509;28;20059;-69
2024/01/26 03:08:09;;;;;;;17.43;9.20;;;9.60;99.90;;;;;;5061556;28;20055;-70
2024/01/26 03:10:37;;;;;;;17.40;8.43;;;9.60;99.90;;;;;;5060593;28;20040;-69
2024/01/26 03:13:03;;;;;;;15.23;8.32;;;9.60;99.90;;;;;;5063146;28;20054;-70
2024/01/26 03:15:29;;;;;;;19.43;9.63;;;9.60;99.90;;;;;;5056051;28;20028;-69
2024/01/26 03:17:54;;;;;;;21.27;8.77;;;9.60;99.90;;;;;;5056789;28;20044;-69
2024/01/26 03:20:23;;;;;;;18.83;8.73;;;9.70;99.90;;;;;;5060531;28;20036;-69
2024/01/26 03:22:48;;;;;;;23.83;9.77;;;9.60;99.90;;;;;;5056969;28;20172;-69
2024/01/26 03:25:14;;;;;;;19.83;9.30;;;9.70;99.90;;;;;;5060197;28;20063;-69
2024/01/26 03:27:40;;;;;;;22.23;9.77;;;9.70;99.90;;;;;;5068752;28;20117;-69
2024/01/26 03:30:08;;;;;;;19.58;9.38;;;9.70;99.90;;;;;;5060279;28;20369;-69
2024/01/26 03:32:34;;;;;;;17.63;8.93;;;9.70;99.90;;;;;;5062532;28;20615;-70
2024/01/26 03:34:59;;;;;;;19.88;9.60;;;9.70;99.90;;;;;;5059126;28;20040;-69
2024/01/26 03:37:25;;;;;;;17.53;8.17;;;9.80;99.90;;;;;;5062781;28;20113;-69
2024/01/26 03:39:51;;;;;;;20.20;9.97;;;9.70;99.90;;;;;;5064351;28;20496;-69
2024/01/26 03:42:19;;;;;;;25.43;10.03;;;9.80;99.90;;;;;;5063665;28;20048;-69
2024/01/26 03:44:44;;;;;;;17.83;9.65;;;9.80;99.90;;;;;;5064306;28;20041;-69
2024/01/26 03:47:10;;;;;;;21.37;9.33;;;9.80;99.90;;;;;;5054855;28;20071;-70
2024/01/26 03:49:44;;;;;;;24.93;10.27;;;9.80;99.90;;;;;;5061099;28;20048;-71
2024/01/26 03:52:10;;;;;;;20.90;9.93;;;9.80;99.90;;;;;;5043045;28;20073;-72
2024/01/26 03:54:38;;;;;;;23.65;10.02;;;9.80;99.90;;;;;;5057824;28;20476;-71
2024/01/26 03:57:08;;;;;;;18.48;9.88;;;9.80;99.90;;;;;;5058003;28;20524;-72
2024/01/26 03:59:33;;;;;;;18.88;8.90;;;9.80;99.90;;;;;;5061451;28;20082;-72
2024/01/26 04:01:59;;;;;;;26.00;10.10;;;9.90;99.90;;;;;;5057982;28;20052;-71
2024/01/26 04:04:24;;;;;;;19.57;9.70;;;9.90;99.90;;;;;;5052208;28;20051;-70
2024/01/26 04:06:50;;;;;;;23.97;10.17;;;9.90;99.90;;;;;;5052374;28;20489;-68
2024/01/26 04:09:16;;;;;;;19.07;10.10;;;9.90;99.90;;;;;;5039448;28;20411;-68
2024/01/26 04:11:41;;;;;;;22.73;9.90;;;9.90;99.90;;;;;;5059796;28;20565;-68
2024/01/26 04:14:07;;;;;;;20.00;9.10;;;9.90;99.90;;;;;;5050307;28;20040;-68
2024/01/26 04:16:33;;;;;;;21.80;10.40;;;9.90;99.90;;;;;;5056673;28;20036;-68
2024/01/26 04:18:58;;;;;;;22.70;10.60;;;9.90;99.90;;;;;;5048150;28;20501;-68
2024/01/26 04:21:24;;;;;;;17.57;9.50;;;10.00;99.90;;;;;;5047895;28;20044;-68
2024/01/26 04:23:50;;;;;;;21.83;10.60;;;9.90;99.90;;;;;;5054424;28;20187;-68
2024/01/26 04:26:17;;;;;;;19.83;9.53;;;10.00;99.90;;;;;;5056039;28;20045;-68
2024/01/26 04:28:42;;;;;;;25.20;10.80;;;10.00;99.90;;;;;;5036010;28;20037;-68
2024/01/26 04:31:10;;;;;;;20.13;9.70;;;10.00;99.90;;;;;;5057583;28;20077;-69
2024/01/26 04:33:36;;;;;;;20.33;10.37;;;10.10;99.90;;;;;;5062818;28;20032;-68
2024/01/26 04:36:02;;;;;;;20.47;9.83;;;10.10;99.90;;;;;;5047804;28;20813;-68
2024/01/26 04:38:29;;;;;;;18.63;10.00;;;10.10;99.90;;;;;;5061302;28;20425;-68
2024/01/26 04:40:55;;;;;;;18.67;9.70;;;10.10;99.90;;;;;;5065798;28;20327;-69
2024/01/26 04:43:20;;;;;;;17.97;9.13;;;10.10;99.90;;;;;;5048806;28;20187;-68
2024/01/26 04:45:46;;;;;;;19.07;9.57;;;10.20;99.90;;;;;;5057079;28;20043;-68
2024/01/26 04:48:13;;;;;;;17.53;9.23;;;10.20;99.90;;;;;;5054744;28;20039;-68
2024/01/26 04:50:38;;;;;;;22.35;9.65;;;10.20;99.90;;;;;;5055031;28;20413;-69
2024/01/26 04:53:06;;;;;;;22.17;9.33;;;10.20;99.90;;;;;;5056221;28;20044;-69
2024/01/26 04:55:35;;;;;;;17.85;8.90;;;10.20;99.90;;;;;;5048056;28;20041;-69
2024/01/26 04:58:01;;;;;;;19.85;10.07;;;10.30;99.90;;;;;;5053546;28;20071;-70
2024/01/26 05:00:27;;;;;;;20.58;9.95;;;10.30;99.90;;;;;;5052701;28;20078;-70
2024/01/26 05:02:53;;;;;;;21.47;9.73;;;10.30;99.90;;;;;;5053879;28;20048;-70
2024/01/26 05:05:18;;;;;;;17.63;9.27;;;10.30;99.90;;;;;;5059956;28;20293;-70
2024/01/26 05:07:44;;;;;;;22.00;10.25;;;10.30;99.90;;;;;;5061867;28;20044;-72
2024/01/26 05:10:11;;;;;;;18.03;9.23;;;10.40;99.90;;;;;;5053095;28;20051;-71
2024/01/26 05:12:37;;;;;;;17.10;8.43;;;10.40;99.90;;;;;;5056855;28;20408;-71
2024/01/26 05:15:03;;;;;;;17.95;8.43;;;10.40;99.90;;;;;;5058900;28;20120;-71
2024/01/26 05:17:31;;;;;;;16.85;9.25;;;10.40;99.90;;;;;;5049020;28;20069;-71
2024/01/26 05:20:00;;;;;;;18.23;9.38;;;10.40;99.90;;;;;;5056466;28;20076;-70
2024/01/26 05:22:25;;;;;;;16.92;9.15;;;10.50;99.90;;;;;;5051117;28;20055;-71
2024/01/26 05:24:51;;;;;;;18.90;8.70;;;10.40;99.90;;;;;;5035019;28;20049;-71
2024/01/26 05:27:19;;;;;;;20.00;9.07;;;10.40;99.90;;;;;;5051073;28;20058;-71
2024/01/26 05:29:44;;;;;;;19.35;8.93;;;10.50;99.90;;;;;;5052583;28;20045;-70
2024/01/26 05:32:10;;;;;;;19.87;8.87;;;10.50;99.90;;;;;;5058219;28;20048;-71
2024/01/26 05:34:36;;;;;;;11.17;7.20;;;10.50;99.90;;;;;;5052698;28;20090;-71
2024/01/26 05:37:01;;;;;;;13.20;7.37;;;10.50;99.90;;;;;;5037603;28;20501;-71
2024/01/26 05:39:28;;;;;;;16.10;7.70;;;10.50;99.90;;;;;;5055124;28;20377;-71
2024/01/26 05:41:54;;;;;;;15.18;8.15;;;10.50;99.90;;;;;;5056432;28;20048;-71
2024/01/26 05:44:20;;;;;;;17.80;8.63;;;10.50;99.90;;;;;;5053391;28;20049;-71
2024/01/26 05:46:45;;;;;;;17.02;8.18;;;10.50;99.90;;;;;;5057667;28;20036;-70
2024/01/26 05:49:11;;;;;;;14.40;7.60;;;10.60;99.90;;;;;;5053474;28;20048;-70
2024/01/26 05:51:37;;;;;;;13.03;7.87;;;10.50;99.90;;;;;;5050199;28;20068;-70
2024/01/26 05:54:03;;;;;;;13.88;7.75;;;10.50;99.90;;;;;;5051078;28;20048;-70
2024/01/26 05:56:29;;;;;;;15.85;8.77;;;10.60;99.90;;;;;;5034572;28;20519;-70
2024/01/26 05:58:54;;;;;;;15.00;8.27;;;10.50;99.90;;;;;;5054715;28;20045;-70
2024/01/26 06:01:22;;;;;;;13.13;8.23;;;10.50;99.90;;;;;;5055477;28;20353;-70
2024/01/26 06:03:48;;;;;;;17.20;7.60;;;10.50;99.90;;;;;;5050452;28;20036;-70
2024/01/26 06:06:15;;;;;;;12.87;8.07;;;10.50;99.90;;;;;;5048433;28;20382;-70
2024/01/26 06:08:42;;;;;;;16.20;8.63;;;10.60;99.90;;;;;;5050563;28;20037;-70
2024/01/26 06:11:09;;;;;;;15.23;8.30;;;10.50;99.90;;;;;;5047343;28;20128;-70
2024/01/26 06:13:35;;;;;;;17.55;8.80;;;10.60;99.90;;;;;;5053784;28;20040;-69
2024/01/26 06:16:01;;;;;;;16.45;8.02;;;10.60;99.90;;;;;;5046759;28;20049;-70
2024/01/26 06:18:26;;;;;;;15.33;8.10;;;10.60;99.90;;;;;;5038485;28;20481;-70
2024/01/26 06:20:52;;;;;;;15.50;8.47;;;10.60;99.90;;;;;;5050519;28;20297;-70
2024/01/26 06:23:17;;;;;;;16.87;8.03;;;10.60;99.90;;;;;;5058720;28;20037;-70
2024/01/26 06:25:43;;;;;;;17.63;8.57;;;10.60;99.90;;;;;;5055903;28;20040;-70
2024/01/26 06:28:09;;;;;;;11.43;7.03;;;10.60;99.90;;;;;;5057644;28;20067;-70
2024/01/26 06:30:34;;;;;;;14.70;7.87;;;10.70;99.90;;;;;;5053860;28;20053;-70
2024/01/26 06:33:00;;;;;;;14.20;8.00;;;10.70;99.90;;;;;;5042411;28;20496;-70
2024/01/26 06:35:26;;;;;;;12.17;7.47;;;10.70;99.90;;;;;;5057791;28;20036;-70
2024/01/26 06:37:51;;;;;;;12.70;6.80;;;10.70;99.90;;;;;;5060040;28;20044;-70
2024/01/26 06:40:17;;;;;;;11.60;6.53;;;10.70;99.90;;;;;;5041198;28;20058;-71
2024/01/26 06:42:42;;;;;;;16.07;7.17;;;10.70;99.90;;;;;;5039450;28;20040;-75
2024/01/26 06:45:09;;;;;;;10.37;6.27;;;10.70;99.90;;;;;;5059363;28;20348;-76
2024/01/26 06:47:35;;;;;;;10.68;6.65;;;10.70;99.90;;;;;;5057074;28;20199;-78
2024/01/26 06:50:04;;;;;;;11.38;7.07;;;10.70;99.90;;;;;;5054351;28;20048;-71
2024/01/26 06:52:31;;;;;;;9.45;5.97;;;10.70;99.90;;;;;;5042326;28;20052;-72
2024/01/26 06:54:57;;;;;;;;;;;10.70;99.90;;;;;;5058391;28;20039;-69
2024/01/26 06:57:22;;;;;;;9.95;5.25;;;10.70;99.90;;;;;;5058832;28;19916;-72
2024/01/26 06:59:48;;;;;;;10.00;5.63;;;10.80;99.90;;;;;;5048035;28;20120;-69
2024/01/26 07:02:14;;;;;;;13.33;6.33;;;10.80;99.90;;;;;;5055120;28;20508;-76
2024/01/26 07:04:39;;;;;;;10.63;6.03;;;10.80;99.90;;;;;;5059346;28;20052;-69
2024/01/26 07:07:05;;;;;;;11.53;6.20;;;10.90;99.90;;;;;;5050374;28;20071;-69
2024/01/26 07:09:34;;;;;;;10.23;6.22;;;10.80;99.90;;;;;;5057538;28;20040;-69
2024/01/26 07:12:02;;;;;;;8.30;5.32;;;10.80;99.90;;;;;;5051590;28;20045;-69
2024/01/26 07:14:28;;;;;;;9.80;5.07;;;10.90;99.90;;;;;;5057713;28;20079;-69
2024/01/26 07:16:53;;;;;;;11.00;4.83;;;10.90;99.90;;;;;;5045676;28;20080;-70
2024/01/26 07:19:21;;;;;;;9.43;4.30;;;10.90;99.90;;;;;;5053082;28;20522;-68
2024/01/26 07:21:47;;;;;;;6.90;4.25;;;10.90;99.90;;;;;;5057750;28;20469;-69
2024/01/26 07:24:13;;;;;;;17.03;4.30;;;10.90;99.90;;;;;;5060432;28;20047;-69
2024/01/26 07:26:39;;;;;;;8.15;5.03;;;10.90;99.90;;;;;;5061538;28;20280;-69
2024/01/26 07:29:05;;;;;;;8.85;4.32;;;10.90;99.90;;;;;;5057927;28;20044;-69
2024/01/26 07:31:30;;;;;;;9.70;4.60;;;10.90;99.90;;;;;;5054994;28;20075;-69
2024/01/26 07:33:56;;;;;;;6.50;3.50;;;10.90;99.90;;;;;;5056906;28;20029;-71
2024/01/26 07:36:22;;;;;;;7.27;4.30;;;10.90;99.90;;;;;;5055343;28;20320;-69
2024/01/26 07:38:50;;;;;;;7.70;4.30;;;10.90;99.90;;;;;;5057398;28;20036;-69
2024/01/26 07:41:16;;;;;;;9.02;4.90;;;10.90;99.90;;;;;;5059908;28;20059;-69
2024/01/26 07:43:42;;;;;;;9.13;5.40;;;10.90;99.90;;;;;;5056815;28;20214;-69
2024/01/26 07:46:07;;;;;;;8.23;4.90;;;10.80;99.90;;;;;;5058403;28;20079;-69
2024/01/26 07:48:33;;;;;;;8.77;4.97;;;10.80;99.90;;;;;;5035829;28;20334;-69
2024/01/26 07:50:58;;;;;;;8.20;5.03;;;10.90;99.90;;;;;;5051740;28;20037;-69
2024/01/26 07:53:24;;;;;;;10.40;5.40;;;10.80;99.90;;;;;;5059339;28;20515;-69
2024/01/26 07:55:50;;;;;;;8.20;5.00;;;10.80;99.90;;;;;;5065564;28;20075;-69
2024/01/26 07:58:18;;;;;;;8.93;4.50;;;10.70;99.90;;;;;;5039389;28;20033;-69
2024/01/26 08:00:44;;;;;;;8.13;5.00;;;10.70;99.90;;;;;;5054042;28;20088;-69
2024/01/26 08:03:10;;;;;;;;;;;10.70;99.90;;;;;;5054794;28;20090;-69
2024/01/26 08:05:36;;;;;;;5.90;3.28;;;10.70;99.90;;;;;;5056060;28;19916;-69
2024/01/26 08:08:02;;;;;;;7.00;3.95;;;10.70;99.90;;;;;;5056904;28;20111;-69
2024/01/26 08:10:27;;;;;;;6.20;3.63;;;10.60;99.90;;;;;;5059860;28;20045;-69
2024/01/26 08:12:53;;;;;;;5.77;3.50;;;10.70;99.90;;;;;;5060768;28;20128;-69
2024/01/26 08:15:19;;;;;;;4.97;3.13;;;10.60;99.90;;;;;;5057517;28;20507;-69
2024/01/26 08:17:45;;;;;;;5.30;3.33;;;10.50;99.90;;;;;;5059396;28;20036;-69
2024/01/26 08:20:11;;;;;;;7.47;3.53;;;10.50;99.90;;;;;;5057322;28;20044;-69
2024/01/26 08:22:38;;;;;;;8.35;3.72;;;10.40;99.90;;;;;;5058082;28;20048;-69
2024/01/26 08:25:05;;;;;;;11.35;3.47;;;10.50;99.90;;;;;;5054820;28;20075;-69
2024/01/26 08:27:30;;;;;;;;;;;10.50;99.90;;;;;;5061129;28;20032;-69
2024/01/26 08:29:56;;;;;;;8.95;4.80;;;10.50;99.90;;;;;;5060781;28;20049;-69
2024/01/26 08:32:22;;;;;;;10.00;4.20;;;10.50;99.90;;;;;;5062350;28;20135;-69
2024/01/26 08:34:47;;;;;;;9.57;4.20;;;10.50;99.90;;;;;;5060643;28;20163;-68
2024/01/26 08:37:13;;;;;;;11.03;4.83;;;10.50;99.90;;;;;;5057294;28;20041;-68
2024/01/26 08:39:42;;;;;;;14.38;4.70;;;10.50;99.90;;;;;;5055848;28;20488;-68
2024/01/26 08:42:08;;;;;;;11.70;4.00;;;10.50;99.90;;;;;;5054875;28;20141;-68
2024/01/26 08:44:34;;;;;;;16.23;4.67;;;10.40;99.90;;;;;;5063834;28;20068;-69
2024/01/26 08:46:59;;;;;;;21.57;3.97;;;10.50;99.90;;;;;;5057794;28;20040;-68
2024/01/26 08:49:25;;;;;;;13.80;3.17;;;10.50;99.90;;;;;;5062054;28;20708;-69
2024/01/26 08:51:53;;;;;;;14.50;3.43;;;10.50;99.90;;;;;;5059858;28;20800;-69
2024/01/26 08:54:19;;;;;;;11.05;2.83;;;10.50;99.90;;;;;;5055698;28;20033;-69
2024/01/26 08:56:45;;;;;;;11.97;3.10;;;10.50;99.90;;;;;;5042171;28;20115;-69
2024/01/26 08:59:11;;;;;;;12.00;3.10;;;10.60;99.90;;;;;;5055616;28;20127;-69
2024/01/26 09:01:38;;;;;;;8.05;2.65;;;10.60;99.90;;;;;;5053216;28;20127;-70
2024/01/26 09:04:08;;;;;;;10.93;1.35;;;10.60;99.90;;;;;;5060952;28;20040;-69
2024/01/26 09:06:34;;;;;;;4.55;1.05;;;10.40;99.90;;;;;;5035699;28;20345;-70
2024/01/26 09:09:01;;;;;;;5.20;1.50;;;10.30;99.90;;;;;;5054944;28;20083;-69
2024/01/26 09:11:26;;;;;;;;;;;10.10;99.90;;;;;;5061235;28;20052;-69
2024/01/26 09:13:52;;;;;;;4.63;0.50;;;9.90;99.90;;;;;;5056444;28;19925;-69
2024/01/26 09:16:18;;;;;;;3.00;0.57;;;9.70;99.90;;;;;;5058610;28;20295;-69
2024/01/26 09:18:43;;;;;;;2.83;0.50;;;9.60;99.90;;;;;;5055198;28;20468;-70
2024/01/26 09:21:12;;;;;;;5.67;0.80;;;9.60;99.90;;;;;;5058342;28;20472;-70
2024/01/26 09:23:39;;;;;;;7.38;1.50;;;9.50;99.90;;;;;;5063843;28;20045;-70
2024/01/26 09:26:05;;;;;;;;;;;9.40;99.90;;;;;;5051399;28;20136;-70
2024/01/26 09:28:30;;;;;;;5.00;0.90;;;9.40;99.90;;;;;;5060869;28;20369;-70
2024/01/26 09:30:56;;;;;;;7.70;1.30;;;9.30;99.90;;;;;;5063493;28;20044;-70
2024/01/26 09:33:22;;;;;;;10.13;1.43;;;9.30;99.90;;;;;;5054996;28;20427;-70
2024/01/26 09:35:48;;;;;;;10.80;1.98;;;9.30;99.90;;;;;;5056702;28;20486;-70
2024/01/26 09:38:14;;;;;;;11.30;1.77;;;9.20;99.90;;;;;;5060943;28;20086;-70
2024/01/26 09:40:39;;;;;;;9.03;1.13;;;9.20;99.90;;;;;;5059761;28;20132;-70
2024/01/26 09:43:07;;;;;;;8.05;1.15;;;9.20;99.90;;;;;;5056400;28;20047;-70
2024/01/26 09:45:33;;;;;;;8.73;1.23;;;9.10;99.90;;;;;;5061810;28;20064;-70
2024/01/26 09:47:59;;;;;;;12.52;1.83;;;9.00;99.90;;;;;;5059264;28;20072;-70
2024/01/26 09:50:26;;;;;;;7.03;1.60;;;9.00;99.90;;;;;;5037016;28;20040;-70
2024/01/26 09:52:52;;;;;;;16.42;1.95;;;9.00;99.90;;;;;;5052123;28;20068;-70
2024/01/26 09:55:21;;;;;;;;;;;9.00;99.90;;;;;;5054728;28;20075;-70
2024/01/26 09:57:47;;;;;;;7.75;1.30;;;8.90;99.90;;;;;;5054453;28;20365;-70
2024/01/26 10:00:14;;;;;;;16.00;1.83;;;8.90;99.90;;;;;;5055705;28;20036;-70
2024/01/26 10:02:42;;;;;;;11.10;2.03;;;8.90;99.90;;;;;;5055658;28;20478;-70
2024/01/26 10:05:08;;;;;;;13.27;2.05;;;8.80;99.90;;;;;;5034429;28;20508;-70
2024/01/26 10:07:34;;;;;;;12.60;2.10;;;8.90;99.90;;;;;;5060385;28;20068;-70
2024/01/26 10:09:59;;;;;;;16.57;2.30;;;8.90;99.90;;;;;;5057641;28;20068;-70
2024/01/26 10:12:25;;;;;;;18.50;2.57;;;8.90;99.90;;;;;;5053806;28;20071;-70
2024/01/26 10:15:11;;;;;;;7.70;1.50;;;8.90;99.90;;;;;;5061226;28;20098;-70
2024/01/26 10:17:40;;;;;;;12.30;2.05;;;8.90;99.90;;;;;;5061608;28;20281;-70
2024/01/26 10:20:13;;;;;;;12.30;2.05;;;8.90;99.90;;;;;;5064117;28;20040;-71
2024/01/26 10:22:39;;;;;;;14.07;2.22;;;9.00;99.90;;;;;;5064310;28;20439;-70
2024/01/26 10:25:05;;;;;;;6.57;1.75;;;8.90;99.90;;;;;;5056216;28;20131;-70
2024/01/26 10:27:31;;;;;;;13.20;1.53;;;8.90;99.90;;;;;;5059575;28;20131;-70
2024/01/26 10:29:57;;;;;;;14.48;1.95;;;8.90;99.90;;;;;;5058100;28;20274;-70
2024/01/26 10:32:27;;;;;;;11.90;1.73;;;8.90;99.90;;;;;;5056838;28;20055;-70
2024/01/26 10:35:01;;;;;;;10.77;1.98;;;8.90;99.90;;;;;;5037641;28;20101;-70
2024/01/26 10:37:29;;;;;;;9.93;1.60;;;8.90;99.90;;;;;;5057588;28;20085;-70
2024/01/26 10:39:56;;;;;;;14.38;2.08;;;8.80;99.90;;;;;;5063086;28;20044;-72
2024/01/26 10:42:23;;;;;;;11.48;2.15;;;8.80;99.90;;;;;;5063896;28;20037;-71
2024/01/26 10:44:52;;;;;;;11.20;1.83;;;8.80;99.90;;;;;;5042800;28;20057;-72
2024/01/26 10:47:18;;;;;;;23.73;3.35;;;8.80;99.90;;;;;;5058580;28;20040;-74
2024/01/26 10:49:49;;;;;;;12.20;2.17;;;8.80;99.90;;;;;;5063278;28;20097;-72
2024/01/26 10:52:19;;;;;;;14.10;1.67;;;8.80;99.90;;;;;;5039375;28;20060;-73
2024/01/26 10:54:49;;;;;;;18.02;2.35;;;8.80;99.90;;;;;;5063520;28;20032;-68
2024/01/26 10:57:16;;;;;;;11.43;2.97;;;8.80;99.90;;;;;;5068507;28;20115;-68
2024/01/26 10:59:45;;;;;;;16.30;2.00;;;8.80;99.90;;;;;;5064116;28;20033;-68
2024/01/26 11:02:20;;;;;;;11.98;1.45;;;8.70;99.90;;;;;;5055652;28;20055;-68
2024/01/26 11:04:46;;;;;;;13.02;2.75;;;8.80;99.90;;;;;;5054229;28;20049;-69
2024/01/26 11:07:11;;;;;;;12.93;2.13;;;8.80;99.90;;;;;;5066617;28;20044;-68
2024/01/26 11:09:41;;;;;;;16.87;2.00;;;8.80;99.90;;;;;;5061875;28;20442;-69
2024/01/26 11:12:21;;;;;;;10.40;2.50;;;8.80;99.90;;;;;;5052751;28;20531;-68
2024/01/26 11:15:01;;;;;;;14.25;1.63;;;8.80;99.90;;;;;;5058621;28;20036;-69
2024/01/26 11:17:27;;;;;;;10.95;2.75;;;8.80;99.90;;;;;;5033972;28;20522;-69
2024/01/26 11:19:59;;;;;;;13.73;2.37;;;8.90;99.90;;;;;;5061108;28;20036;-69
2024/01/26 11:22:32;;;;;;;8.43;1.40;;;8.90;99.90;;;;;;5062406;28;20033;-68
2024/01/26 11:24:58;;;;;;;11.35;1.90;;;8.90;99.90;;;;;;5070731;28;20491;-68
2024/01/26 11:27:24;;;;;;;6.93;1.77;;;8.90;99.90;;;;;;5059612;28;20040;-69
2024/01/26 11:29:49;;;;;;;10.20;2.13;;;8.90;99.90;;;;;;5062181;28;20119;-69
2024/01/26 11:32:19;;;;;;;15.70;2.03;;;8.90;99.90;;;;;;5065675;28;20043;-68
2024/01/26 11:34:59;;;;;;;13.02;2.05;;;8.90;99.90;;;;;;5054905;28;20044;-69
2024/01/26 11:37:27;;;;;;;10.50;2.08;;;8.80;99.90;;;;;;5063422;28;20078;-68
2024/01/26 11:39:54;;;;;;;10.65;1.58;;;8.90;99.90;;;;;;5061760;28;20040;-68
2024/01/26 11:42:20;;;;;;;8.43;1.13;;;8.80;99.90;;;;;;5055549;28;20115;-68
2024/01/26 11:45:12;;;;;;;13.77;1.50;;;8.80;99.90;;;;;;5069001;28;20553;-68
2024/01/26 11:47:42;;;;;;;11.93;1.55;;;8.70;99.90;;;;;;5056439;28;20543;-69
2024/01/26 11:50:09;;;;;;;12.77;2.10;;;8.70;99.90;;;;;;5067401;28;20128;-68
2024/01/26 11:52:36;;;;;;;13.85;2.53;;;8.70;99.90;;;;;;5065322;28;20119;-68
2024/01/26 11:55:03;;;;;;;12.48;2.00;;;8.70;99.90;;;;;;5059678;28;20120;-68
2024/01/26 11:57:30;;;;;;;13.38;3.15;;;8.70;99.90;;;;;;5038929;28;20066;-68
2024/01/26 11:59:59;;;;;;;13.68;2.58;;;8.60;99.90;;;;;;5060166;28;20068;-69
2024/01/26 12:02:26;;;;;;;12.13;2.58;;;8.50;99.90;;;;;;5058115;28;20110;-69
2024/01/26 12:04:52;;;;;;;14.30;2.22;;;8.50;99.90;;;;;;5066447;28;20048;-69
2024/01/26 12:07:17;;;;;;;12.80;2.37;;;8.50;99.90;;;;;;5067141;28;20049;-68
2024/01/26 12:09:44;;;;;;;22.50;2.80;;;8.50;99.90;;;;;;5058432;28;20032;-69
2024/01/26 12:12:10;;;;;;;18.27;2.53;;;8.50;99.90;;;;;;5063735;28;20768;-69
2024/01/26 12:14:36;;;;;;;15.05;2.38;;;8.40;99.90;;;;;;5069653;28;20501;-68
2024/01/26 12:17:02;;;;;;;11.48;2.03;;;8.50;99.90;;;;;;5067636;28;20405;-69
2024/01/26 12:19:28;;;;;;;13.30;2.88;;;8.40;99.90;;;;;;5069128;28;20036;-67
2024/01/26 12:21:53;;;;;;;16.30;2.77;;;8.40;99.90;;;;;;5060065;28;20404;-68
2024/01/26 12:24:21;;;;;;;13.27;3.27;;;8.30;99.90;;;;;;5055112;28;20265;-68
2024/01/26 12:26:47;;;;;;;17.13;4.32;;;8.20;99.90;;;;;;5069786;28;20041;-67
2024/01/26 12:29:12;;;;;;;11.17;2.07;;;8.10;99.90;;;;;;5067509;28;20036;-67
2024/01/26 12:31:38;;;;;;;9.13;2.53;;;8.10;99.90;;;;;;5061813;28;20524;-68
2024/01/26 12:34:16;;;;;;;13.97;2.40;;;8.00;99.90;;;;;;5053746;28;20386;-67
2024/01/26 12:36:42;;;;;;;8.68;1.83;;;7.90;99.90;;;;;;5057076;28;20043;-68
2024/01/26 12:39:08;;;;;;;9.40;1.90;;;7.80;99.90;;;;;;5062999;28;20119;-69
2024/01/26 12:41:34;;;;;;;11.63;1.43;;;7.80;99.90;;;;;;5055641;28;20045;-68